Caletta — ICNZ — position and weather

sailwx.info

Track history (hours):
 
Tides and Currents Weather Stations Pressure Air Temp Water Temp Dewpoint Dewpoint Depression Visibility Wind Speed Wind Dir Waves Ship Positions

Caletta

Last reported at 2014-Aug-26 17:23 UTC. Time now 2014-Aug-27 15:15 UTC.
Position N 38°33' W 073°45'.

Length 183 m; draft 7.5 m.

Type: Tanker. MMSI: 247296300.

Date/timePositionNaut miles runAvg speedWind from/ knotsBaromVisibWave heightAir tempDewpointWater temp
2014-Aug-26 17:23N 38°33' W 073°45'1012.5
2014-Aug-26 16:34N 38°44' W 073°46'1312.5
2014-Aug-26 15:33N 38°56' W 073°47'1212.3
2014-Aug-26 14:34N 39°08' W 073°48'1312.7
2014-Aug-26 13:33N 39°21' W 073°49'1312.5
2014-Aug-26 12:33N 39°34' W 073°50'1212.3
2014-Aug-26 11:33N 39°46' W 073°51'1212.4
2014-Aug-26 10:33N 39°58' W 073°50'1212.4
2014-Aug-26 09:33N 40°11' W 073°49'1111.5
2014-Aug-26 08:33N 40°22' W 073°46'10 9.5
2014-Aug-26 07:32N 40°31' W 073°42'0 0.1
2014-Aug-26 06:32N 40°31' W 073°41'0 0.0
2014-Aug-26 05:32N 40°31' W 073°41'0 0.0
2014-Aug-26 04:32N 40°31' W 073°41'0 0.0
2014-Aug-26 03:32N 40°31' W 073°41'1 0.1
2014-Aug-25 21:14N 40°31' W 073°42'8 9.2
2014-Aug-25 20:22N 40°26' W 073°51'1012.0
2014-Aug-25 19:33N 40°29' W 074°03'9 4.5
2014-Aug-25 17:33N 40°34' W 074°13'1 0.1
2014-Aug-25 13:13N 40°35' W 074°13'0 0.0
2014-Aug-25 12:19N 40°35' W 074°13'0 0.0
2014-Aug-24 13:25N 40°35' W 074°13'3 2.7
2014-Aug-24 12:26N 40°33' W 074°15'4 4.0
2014-Aug-24 11:33N 40°30' W 074°13'10 9.9
2014-Aug-24 10:33N 40°29' W 074°01'10 9.9
2014-Aug-24 09:33N 40°27' W 073°48'5 5.4
2014-Aug-24 08:33N 40°30' W 073°41'0 0.1
2014-Aug-24 07:32N 40°30' W 073°42'0 0.0
2014-Aug-24 06:32N 40°30' W 073°42'0 0.0
2014-Aug-24 05:26N 40°30' W 073°42'0 0.0
2014-Aug-24 04:32N 40°30' W 073°42'0 0.0
2014-Aug-24 03:32N 40°30' W 073°42'0 0.0
2014-Aug-24 02:32N 40°30' W 073°42'0 0.0
2014-Aug-24 01:29N 40°30' W 073°42'0 0.1
2014-Aug-24 00:21N 40°30' W 073°41'6 7.1
2014-Aug-23 23:33N 40°28' W 073°34'1313.4
2014-Aug-23 22:33N 40°29' W 073°17'1413.9
2014-Aug-23 21:31N 40°30' W 072°58'1414.1
2014-Aug-23 20:33N 40°30' W 072°40'1414.0
2014-Aug-23 19:33N 40°31' W 072°22'  
Track history (hours):
 
Tides and Currents Weather Stations Pressure Air Temp Water Temp Dewpoint Dewpoint Depression Visibility Wind Speed Wind Dir Waves Ship Positions

Caletta

Last reported at 2014-Aug-26 17:23 UTC. Time now 2014-Aug-27 15:15 UTC.
Position N 38°33' W 073°45'.

Length 183 m; draft 7.5 m.

Type: Tanker. MMSI: 247296300.

Date/timePositionNaut miles runAvg speedWind from/ knotsBaromVisibWave heightAir tempDewpointWater temp
2014-Aug-26 17:23N 38°33' W 073°45'1012.5
2014-Aug-26 16:34N 38°44' W 073°46'1312.5
2014-Aug-26 15:33N 38°56' W 073°47'1212.3
2014-Aug-26 14:34N 39°08' W 073°48'1312.7
2014-Aug-26 13:33N 39°21' W 073°49'1312.5
2014-Aug-26 12:33N 39°34' W 073°50'1212.3
2014-Aug-26 11:33N 39°46' W 073°51'1212.4
2014-Aug-26 10:33N 39°58' W 073°50'1212.4
2014-Aug-26 09:33N 40°11' W 073°49'1111.5
2014-Aug-26 08:33N 40°22' W 073°46'10 9.5
2014-Aug-26 07:32N 40°31' W 073°42'0 0.1
2014-Aug-26 06:32N 40°31' W 073°41'0 0.0
2014-Aug-26 05:32N 40°31' W 073°41'0 0.0
2014-Aug-26 04:32N 40°31' W 073°41'0 0.0
2014-Aug-26 03:32N 40°31' W 073°41'1 0.1
2014-Aug-25 21:14N 40°31' W 073°42'8 9.2
2014-Aug-25 20:22N 40°26' W 073°51'1012.0
2014-Aug-25 19:33N 40°29' W 074°03'9 4.5
2014-Aug-25 17:33N 40°34' W 074°13'1 0.1
2014-Aug-25 13:13N 40°35' W 074°13'0 0.0
2014-Aug-25 12:19N 40°35' W 074°13'0 0.0
2014-Aug-24 13:25N 40°35' W 074°13'3 2.7
2014-Aug-24 12:26N 40°33' W 074°15'4 4.0
2014-Aug-24 11:33N 40°30' W 074°13'10 9.9
2014-Aug-24 10:33N 40°29' W 074°01'10 9.9
2014-Aug-24 09:33N 40°27' W 073°48'5 5.4
2014-Aug-24 08:33N 40°30' W 073°41'0 0.1
2014-Aug-24 07:32N 40°30' W 073°42'0 0.0
2014-Aug-24 06:32N 40°30' W 073°42'0 0.0
2014-Aug-24 05:26N 40°30' W 073°42'0 0.0
2014-Aug-24 04:32N 40°30' W 073°42'0 0.0
2014-Aug-24 03:32N 40°30' W 073°42'0 0.0
2014-Aug-24 02:32N 40°30' W 073°42'0 0.0
2014-Aug-24 01:29N 40°30' W 073°42'0 0.1
2014-Aug-24 00:21N 40°30' W 073°41'6 7.1
2014-Aug-23 23:33N 40°28' W 073°34'1313.4
2014-Aug-23 22:33N 40°29' W 073°17'1413.9
2014-Aug-23 21:31N 40°30' W 072°58'1414.1
2014-Aug-23 20:33N 40°30' W 072°40'1414.0
2014-Aug-23 19:33N 40°31' W 072°22'  

Dump ship's entire track history